createdAt,value
2022-09-13T00:01:40.477Z,100993.72
2022-09-13T00:04:08.474Z,100992.81
2022-09-13T00:06:36.172Z,100989.31
2022-09-13T00:09:03.883Z,100993.38
2022-09-13T00:11:32.353Z,100993.38
2022-09-13T00:14:00.319Z,100987.31
2022-09-13T00:16:29.468Z,100986.47
2022-09-13T00:18:58.542Z,100991.59
2022-09-13T00:21:27.832Z,100984.34
2022-09-13T00:23:56.143Z,100972.88
2022-09-13T00:26:24.680Z,100966.66
2022-09-13T00:28:52.705Z,100961.06
2022-09-13T00:31:20.913Z,100949.50
2022-09-13T00:33:48.591Z,100951.75
2022-09-13T00:36:17.748Z,100948.06
2022-09-13T00:38:45.693Z,100939.94
2022-09-13T00:41:14.831Z,100946.13
2022-09-13T00:43:44.104Z,100946.72
2022-09-13T00:46:13.012Z,100940.63
2022-09-13T00:48:41.635Z,100938.59
2022-09-13T00:51:10.387Z,100932.28
2022-09-13T00:53:40.642Z,100926.09
2022-09-13T00:56:10.108Z,100923.34
2022-09-13T00:58:39.571Z,100919.63
2022-09-13T01:01:08.529Z,100922.13
2022-09-13T01:03:36.791Z,100920.47
2022-09-13T01:06:07.078Z,100910.44
2022-09-13T01:08:36.074Z,100910.88
2022-09-13T01:11:07.798Z,100911.50
2022-09-13T01:13:37.076Z,100907.78
2022-09-13T01:16:04.818Z,100903.50
2022-09-13T01:18:32.436Z,100893.22
2022-09-13T01:21:10.006Z,100894.88
2022-09-13T01:23:55.286Z,100894.06
2022-09-13T01:26:45.242Z,100884.50
2022-09-13T01:29:31.010Z,100884.72
2022-09-13T01:32:06.097Z,100878.91
2022-09-13T01:34:40.969Z,100875.56
2022-09-13T01:37:24.051Z,100870.53
2022-09-13T01:40:04.636Z,100864.56
2022-09-13T01:42:36.946Z,100858.50
2022-09-13T01:45:08.331Z,100852.38
2022-09-13T01:47:43.667Z,100840.78
2022-09-13T01:50:16.797Z,100834.97
2022-09-13T01:52:50.585Z,100833.88
2022-09-13T01:55:24.536Z,100819.78
2022-09-13T01:57:55.119Z,100807.59
2022-09-13T02:00:22.772Z,100805.69
2022-09-13T02:02:54.390Z,100798.50
2022-09-13T02:05:30.331Z,100796.72
2022-09-13T02:08:00.695Z,100788.59
2022-09-13T02:10:30.767Z,100784.19
2022-09-13T02:12:59.071Z,100780.47
2022-09-13T02:15:28.851Z,100781.88
2022-09-13T02:18:03.419Z,100768.75
2022-09-13T02:20:35.116Z,100757.59
2022-09-13T02:23:04.145Z,100759.31
2022-09-13T02:25:33.284Z,100756.41
2022-09-13T02:28:03.473Z,100759.63
2022-09-13T02:30:32.939Z,100746.84
2022-09-13T02:33:05.010Z,100734.53
2022-09-13T02:35:35.050Z,100732.47
2022-09-13T02:38:05.714Z,100732.94
2022-09-13T02:40:36.127Z,100731.72
2022-09-13T02:43:07.013Z,100724.41
2022-09-13T02:45:37.474Z,100713.91
2022-09-13T02:48:10.542Z,100709.66
2022-09-13T02:50:43.510Z,100700.91
2022-09-13T02:53:16.074Z,100706.06
2022-09-13T02:55:46.117Z,100697.09
2022-09-13T02:58:15.356Z,100696.97
2022-09-13T03:00:43.022Z,100689.88
2022-09-13T03:03:13.594Z,100671.09
2022-09-13T03:05:41.598Z,100669.03
2022-09-13T03:08:10.835Z,100666.28
2022-09-13T03:10:45.785Z,100660.88
2022-09-13T03:13:21.453Z,100650.09
2022-09-13T03:15:59.730Z,100658.84
2022-09-13T03:18:38.471Z,100653.31
2022-09-13T03:21:10.807Z,100643.34
2022-09-13T03:23:43.343Z,100633.66
2022-09-13T03:26:22.912Z,100636.97
2022-09-13T03:28:55.091Z,100622.72
2022-09-13T03:31:28.291Z,100619.69
2022-09-13T03:33:59.249Z,100623.16
2022-09-13T03:36:30.806Z,100615.38
2022-09-13T03:39:02.133Z,100606.56
2022-09-13T03:41:33.389Z,100593.25
2022-09-13T03:44:02.865Z,100591.56
2022-09-13T03:46:33.687Z,100589.91
2022-09-13T03:49:05.767Z,100586.44
2022-09-13T03:51:34.084Z,100581.03
2022-09-13T03:54:03.861Z,100582.88
2022-09-13T03:56:31.680Z,100579.25
2022-09-13T03:58:59.299Z,100574.44
2022-09-13T04:01:27.238Z,100574.56
2022-09-13T04:03:57.023Z,100569.97
2022-09-13T04:06:26.275Z,100552.28
2022-09-13T04:08:53.868Z,100551.88
2022-09-13T04:11:21.905Z,100552.84
2022-09-13T04:13:49.597Z,100548.97
2022-09-13T04:16:17.669Z,100542.03
2022-09-13T04:18:45.379Z,100542.03
2022-09-13T04:21:12.951Z,100544.41
2022-09-13T04:23:44.319Z,100541.63
2022-09-13T04:26:12.046Z,100534.41
2022-09-13T04:28:39.627Z,100536.09
2022-09-13T04:31:07.241Z,100523.06
2022-09-13T04:33:34.830Z,100525.44
2022-09-13T04:36:02.662Z,100519.19
2022-09-13T04:38:31.962Z,100516.41
2022-09-13T04:41:00.965Z,100510.88
2022-09-13T04:43:28.578Z,100516.72
2022-09-13T04:45:56.347Z,100510.59
2022-09-13T04:48:23.984Z,100502.56
2022-09-13T04:50:51.570Z,100509.22
2022-09-13T04:53:19.283Z,100510.06
2022-09-13T04:55:46.895Z,100496.59
2022-09-13T04:58:15.858Z,100506.03
2022-09-13T05:00:43.524Z,100500.47
2022-09-13T05:03:11.106Z,100494.94
2022-09-13T05:05:38.694Z,100485.09
2022-09-13T05:08:06.407Z,100487.59
2022-09-13T05:10:34.014Z,100484.53
2022-09-13T05:13:01.686Z,100469.16
2022-09-13T05:15:30.664Z,100465.56
2022-09-13T05:17:58.238Z,100464.72
2022-09-13T05:20:25.851Z,100469.56
2022-09-13T05:22:53.439Z,100459.75
2022-09-13T05:25:25.423Z,100460.25
2022-09-13T05:27:53.658Z,100445.84
2022-09-13T05:30:21.271Z,100448.06
2022-09-13T05:32:50.233Z,100449.72
2022-09-13T05:35:17.827Z,100439.88
2022-09-13T05:37:45.427Z,100441.22
2022-09-13T05:40:13.191Z,100435.53
2022-09-13T05:42:40.879Z,100432.75
2022-09-13T05:45:09.451Z,100421.09
2022-09-13T05:47:37.110Z,100422.59
2022-09-13T05:50:11.025Z,100421.34
2022-09-13T05:52:43.721Z,100415.94
2022-09-13T05:55:13.817Z,100412.16
2022-09-13T05:57:41.422Z,100411.88
2022-09-13T06:00:09.882Z,100409.25
2022-09-13T06:02:37.531Z,100401.88
2022-09-13T06:05:06.938Z,100394.78
2022-09-13T06:07:35.310Z,100383.78
2022-09-13T06:10:03.087Z,100377.56
2022-09-13T06:12:30.818Z,100375.44
2022-09-13T06:14:58.406Z,100374.34
2022-09-13T06:17:26.008Z,100359.88
2022-09-13T06:19:53.613Z,100366.66
2022-09-13T06:22:22.584Z,100355.97
2022-09-13T06:24:50.218Z,100354.00
2022-09-13T06:27:17.839Z,100352.72
2022-09-13T06:29:45.420Z,100347.00
2022-09-13T06:32:13.013Z,100344.06
2022-09-13T06:34:40.619Z,100345.72
2022-09-13T06:37:08.253Z,100341.97
2022-09-13T06:39:37.239Z,100336.53
2022-09-13T06:42:05.084Z,100330.13
2022-09-13T06:44:32.842Z,100322.06
2022-09-13T06:47:00.419Z,100324.56
2022-09-13T06:49:29.224Z,100313.84
2022-09-13T06:51:56.826Z,100317.16
2022-09-13T06:54:24.467Z,100309.09
2022-09-13T06:56:53.638Z,100314.53
2022-09-13T06:59:21.303Z,100312.72
2022-09-13T07:01:49.012Z,100306.47
2022-09-13T07:04:17.379Z,100300.19
2022-09-13T07:06:46.983Z,100296.56
2022-09-13T07:09:15.585Z,100295.75
2022-09-13T07:11:43.530Z,100290.63
2022-09-13T07:14:16.639Z,100297.72
2022-09-13T07:16:44.282Z,100282.03
2022-09-13T07:19:16.455Z,100274.59
2022-09-13T07:21:44.286Z,100285.28
2022-09-13T07:24:14.668Z,100280.47
2022-09-13T07:26:42.262Z,100280.63
2022-09-13T07:29:11.622Z,100280.91
2022-09-13T07:31:41.714Z,100275.94
2022-09-13T07:34:10.051Z,100286.66
2022-09-13T07:36:37.650Z,100282.34
2022-09-13T07:39:05.898Z,100278.19
2022-09-13T07:41:34.047Z,100282.81
2022-09-13T07:44:02.796Z,100278.66
2022-09-13T07:46:32.809Z,100278.13
2022-09-13T07:49:02.397Z,100274.66
2022-09-13T07:51:30.946Z,100271.06
2022-09-13T07:53:59.431Z,100273.16
2022-09-13T07:56:28.058Z,100271.72
2022-09-13T07:58:56.048Z,100265.09
2022-09-13T08:01:24.714Z,100261.19
2022-09-13T08:03:53.273Z,100253.25
2022-09-13T08:06:25.967Z,100253.56
2022-09-13T08:08:53.883Z,100253.41
2022-09-13T08:11:22.214Z,100252.44
2022-09-13T08:13:53.394Z,100241.72
2022-09-13T08:16:24.329Z,100241.06
2022-09-13T08:18:52.873Z,100235.66
2022-09-13T08:21:20.853Z,100239.94
2022-09-13T08:23:50.007Z,100241.56
2022-09-13T08:26:18.350Z,100237.59
2022-09-13T08:28:45.987Z,100234.97
2022-09-13T08:31:16.996Z,100230.81
2022-09-13T08:33:46.744Z,100227.19
2022-09-13T08:36:15.403Z,100224.56
2022-09-13T08:38:46.347Z,100220.44
2022-09-13T08:41:26.254Z,100213.88
2022-09-13T08:43:58.563Z,100198.34
2022-09-13T08:46:30.386Z,100202.13
2022-09-13T08:49:00.916Z,100199.09
2022-09-13T08:51:33.653Z,100195.81
2022-09-13T08:54:03.070Z,100183.09
2022-09-13T08:56:37.791Z,100184.03
2022-09-13T08:59:15.750Z,100184.03
2022-09-13T09:01:50.296Z,100168.53
2022-09-13T09:04:28.977Z,100169.22
2022-09-13T09:07:03.542Z,100163.25
2022-09-13T09:09:33.452Z,100158.69
2022-09-13T09:12:06.122Z,100165.28
2022-09-13T09:14:37.082Z,100155.59
2022-09-13T09:17:06.934Z,100142.94
2022-09-13T09:19:37.265Z,100134.50
2022-09-13T09:22:06.279Z,100133.66
2022-09-13T09:24:36.239Z,100131.03
2022-09-13T09:27:11.137Z,100136.59
2022-09-13T09:29:40.279Z,100121.63
2022-09-13T09:32:16.843Z,100113.78
2022-09-13T09:34:51.181Z,100113.94
2022-09-13T09:37:22.101Z,100110.69
2022-09-13T09:39:51.058Z,100103.13
2022-09-13T09:42:21.907Z,100096.56
2022-09-13T09:44:52.426Z,100095.06
2022-09-13T09:47:24.878Z,100082.72
2022-09-13T09:50:13.206Z,100081.72
2022-09-13T09:52:44.585Z,100082.25
2022-09-13T09:55:15.508Z,100076.66
2022-09-13T09:57:54.412Z,100077.63
2022-09-13T10:00:24.115Z,100069.72
2022-09-13T10:02:54.941Z,100061.47
2022-09-13T10:05:24.090Z,100056.03
2022-09-13T10:07:56.742Z,100052.88
2022-09-13T10:10:27.327Z,100035.88
2022-09-13T10:12:57.370Z,100030.44
2022-09-13T10:15:26.946Z,100027.13
2022-09-13T10:18:16.754Z,100029.97
2022-09-13T10:21:03.459Z,100025.34
2022-09-13T10:23:31.431Z,100014.00
2022-09-13T10:26:03.822Z,100012.34
2022-09-13T10:28:34.851Z,99999.00
2022-09-13T10:31:04.945Z,99989.81
2022-09-13T10:33:35.037Z,99984.53
2022-09-13T10:36:04.449Z,99982.53
2022-09-13T10:38:33.220Z,99968.56
2022-09-13T10:41:02.752Z,99968.88
2022-09-13T10:43:31.785Z,99966.72
2022-09-13T10:46:02.423Z,99966.06
2022-09-13T10:48:31.261Z,99955.53
2022-09-13T10:51:06.685Z,99949.25
2022-09-13T10:53:36.106Z,99956.66
2022-09-13T10:56:04.676Z,99954.00
2022-09-13T10:58:32.395Z,99956.97
2022-09-13T11:01:17.756Z,99946.56
2022-09-13T11:03:56.805Z,99945.94
2022-09-13T11:06:29.062Z,99942.94
2022-09-13T11:09:01.007Z,99937.16
2022-09-13T11:11:33.798Z,99929.72
2022-09-13T11:14:13.376Z,99929.22
2022-09-13T11:16:49.576Z,99903.16
2022-09-13T11:19:38.079Z,99901.38
2022-09-13T11:22:16.051Z,99899.84
2022-09-13T11:24:49.560Z,99904.47
2022-09-13T11:27:23.142Z,99904.78
2022-09-13T11:30:04.019Z,99893.22
2022-09-13T11:32:39.785Z,99895.91
2022-09-13T11:35:18.985Z,99887.63
2022-09-13T11:37:53.741Z,99884.34
2022-09-13T11:40:29.802Z,99881.72
2022-09-13T11:43:05.426Z,99872.97
2022-09-13T11:45:37.226Z,99881.03
2022-09-13T11:48:17.951Z,99876.38
2022-09-13T11:50:50.588Z,99880.19
2022-09-13T11:53:34.302Z,99878.84
2022-09-13T11:56:08.547Z,99874.22
2022-09-13T11:58:39.319Z,99855.13
2022-09-13T12:01:08.976Z,99866.47
2022-09-13T12:03:39.796Z,99869.63
2022-09-13T12:06:12.318Z,99856.47
2022-09-13T12:08:44.720Z,99855.94
2022-09-13T12:11:16.186Z,99862.69
2022-09-13T12:13:46.229Z,99860.06
2022-09-13T12:16:16.966Z,99845.09
2022-09-13T12:18:45.916Z,99833.25
2022-09-13T12:21:14.935Z,99829.81
2022-09-13T12:23:47.551Z,99818.78
2022-09-13T12:26:16.875Z,99819.28
2022-09-13T12:28:47.608Z,99818.78
2022-09-13T12:31:19.604Z,99814.19
2022-09-13T12:33:48.741Z,99805.13
2022-09-13T12:36:31.236Z,99801.38
2022-09-13T12:39:25.811Z,99793.31
2022-09-13T12:42:03.838Z,99786.06
2022-09-13T12:44:42.531Z,99784.25
2022-09-13T12:47:43.030Z,99774.03
2022-09-13T12:53:25.447Z,99752.63
2022-09-13T12:56:00.086Z,99754.41
2022-09-13T12:58:39.055Z,99753.47
2022-09-13T13:01:10.924Z,99742.91
2022-09-13T13:03:46.858Z,99741.91
2022-09-13T13:06:22.669Z,99742.59
2022-09-13T13:08:52.621Z,99737.63
2022-09-13T13:11:23.882Z,99733.19
2022-09-13T13:13:57.401Z,99715.41
2022-09-13T13:16:27.470Z,99710.97
2022-09-13T13:18:56.055Z,99695.78
2022-09-13T13:21:28.556Z,99687.72
2022-09-13T13:24:14.570Z,99688.38
2022-09-13T13:26:46.646Z,99685.91
2022-09-13T13:29:17.990Z,99686.75
2022-09-13T13:32:07.907Z,99723.97
2022-09-13T13:34:38.803Z,99716.56
2022-09-13T13:37:07.509Z,99723.28
2022-09-13T13:39:36.966Z,99714.38
2022-09-13T13:42:12.787Z,99716.00
2022-09-13T13:44:59.074Z,99725.19
2022-09-13T13:47:56.954Z,99736.38
2022-09-13T13:50:24.569Z,99738.25
2022-09-13T13:52:55.378Z,99724.69
2022-09-13T13:55:41.686Z,99711.84
2022-09-13T13:58:27.192Z,99715.09
2022-09-13T14:00:57.018Z,99715.22
2022-09-13T14:03:28.279Z,99716.28
2022-09-13T14:06:00.994Z,99709.19
2022-09-13T14:08:39.335Z,99708.00
2022-09-13T14:11:15.864Z,99715.91
2022-09-13T14:13:49.159Z,99695.09
2022-09-13T14:16:26.097Z,99685.59
2022-09-13T14:19:07.485Z,99662.75
2022-09-13T14:21:35.390Z,99661.06
2022-09-13T14:24:18.402Z,99643.50
2022-09-13T14:26:46.401Z,99649.75
2022-09-13T14:29:20.327Z,99653.72
2022-09-13T14:31:51.139Z,99648.66
2022-09-13T14:34:22.601Z,99644.72
2022-09-13T14:36:52.646Z,99648.50
2022-09-13T14:39:20.236Z,99649.47
2022-09-13T14:41:47.847Z,99646.53
2022-09-13T14:44:22.455Z,99634.06
2022-09-13T14:46:55.204Z,99634.53
2022-09-13T14:49:26.183Z,99630.78
2022-09-13T14:51:56.985Z,99632.78
2022-09-13T14:54:29.993Z,99636.75
2022-09-13T14:56:59.614Z,99638.91
2022-09-13T14:59:30.328Z,99632.34
2022-09-13T15:02:02.807Z,99631.84
2022-09-13T15:04:31.000Z,99630.41
2022-09-13T15:07:08.541Z,99623.69
2022-09-13T15:09:38.320Z,99620.41
2022-09-13T15:12:06.119Z,99609.06
2022-09-13T15:14:35.138Z,99609.22
2022-09-13T15:17:09.500Z,99606.78
2022-09-13T15:19:39.164Z,99599.91
2022-09-13T15:22:12.823Z,99603.72
2022-09-13T15:24:44.110Z,99603.22
2022-09-13T15:27:18.506Z,99607.34
2022-09-13T15:29:49.838Z,99607.19
2022-09-13T15:32:23.115Z,99608.66
2022-09-13T15:34:51.119Z,99608.50
2022-09-13T15:37:20.697Z,99611.44
2022-09-13T15:39:49.641Z,99611.78
2022-09-13T15:42:17.565Z,99616.88
2022-09-13T15:44:46.530Z,99615.09
2022-09-13T15:47:17.275Z,99621.66
2022-09-13T15:49:48.763Z,99625.31
2022-09-13T15:52:17.632Z,99619.34
2022-09-13T15:54:47.570Z,99619.84
2022-09-13T15:57:17.978Z,99625.63
2022-09-13T15:59:45.585Z,99616.88
2022-09-13T16:02:20.918Z,99622.16
2022-09-13T16:04:50.060Z,99612.94
2022-09-13T16:07:18.246Z,99611.63
2022-09-13T16:09:46.116Z,99611.94
2022-09-13T16:12:13.699Z,99604.53
2022-09-13T16:14:41.531Z,99608.16
2022-09-13T16:17:12.663Z,99615.41
2022-09-13T16:19:40.262Z,99606.19
2022-09-13T16:22:12.650Z,99603.72
2022-09-13T16:24:40.882Z,99606.50
2022-09-13T16:27:08.496Z,99596.16
2022-09-13T16:29:36.107Z,99599.75
2022-09-13T16:32:04.106Z,99600.91
2022-09-13T16:34:31.703Z,99591.66
2022-09-13T16:36:59.346Z,99589.19
2022-09-13T16:39:29.091Z,99598.69
2022-09-13T16:41:56.771Z,99585.84
2022-09-13T16:44:24.410Z,99584.22
2022-09-13T16:46:52.110Z,99585.69
2022-09-13T16:49:19.755Z,99586.19
2022-09-13T16:51:47.366Z,99594.88
2022-09-13T16:54:15.114Z,99593.25
2022-09-13T16:56:44.084Z,99584.69
2022-09-13T16:59:11.772Z,99589.28
2022-09-13T17:01:39.504Z,99587.78
2022-09-13T17:04:08.136Z,99589.91
2022-09-13T17:06:35.801Z,99582.84
2022-09-13T17:09:05.347Z,99584.97
2022-09-13T17:11:33.641Z,99573.31
2022-09-13T17:14:04.608Z,99581.69
2022-09-13T17:16:33.365Z,99581.19
2022-09-13T17:19:10.258Z,99569.97
2022-09-13T17:21:37.871Z,99572.94
2022-09-13T17:24:08.994Z,99574.09
2022-09-13T17:26:39.922Z,99560.25
2022-09-13T17:29:09.096Z,99570.63
2022-09-13T17:31:36.839Z,99570.09
2022-09-13T17:34:05.352Z,99563.50
2022-09-13T17:36:33.138Z,99554.78
2022-09-13T17:39:00.830Z,99557.09
2022-09-13T17:41:28.634Z,99547.06
2022-09-13T17:43:56.226Z,99554.09
2022-09-13T17:46:26.093Z,99555.09
2022-09-13T17:48:54.769Z,99556.22
2022-09-13T17:51:22.837Z,99559.16
2022-09-13T17:53:51.544Z,99555.06
2022-09-13T17:56:19.697Z,99553.09
2022-09-13T17:58:47.623Z,99541.91
2022-09-13T18:01:15.849Z,99546.31
2022-09-13T18:03:45.039Z,99535.31
2022-09-13T18:06:14.583Z,99527.59
2022-09-13T18:08:42.922Z,99529.53
2022-09-13T18:11:14.171Z,99519.88
2022-09-13T18:13:43.190Z,99518.88
2022-09-13T18:16:14.253Z,99518.03
2022-09-13T18:18:47.459Z,99514.09
2022-09-13T18:21:18.508Z,99511.09
2022-09-13T18:23:46.550Z,99521.13
2022-09-13T18:26:15.221Z,99524.56
2022-09-13T18:28:44.045Z,99519.66
2022-09-13T18:31:13.637Z,99517.34
2022-09-13T18:33:41.293Z,99514.47
2022-09-13T18:36:11.379Z,99516.25
2022-09-13T18:38:39.942Z,99512.16
2022-09-13T18:41:08.502Z,99509.16
2022-09-13T18:43:36.691Z,99502.59
2022-09-13T18:46:05.770Z,99497.16
2022-09-13T18:48:34.898Z,99505.06
2022-09-13T18:51:02.898Z,99504.22
2022-09-13T18:53:34.990Z,99499.28
2022-09-13T18:56:03.355Z,99488.13
2022-09-13T18:58:31.422Z,99495.69
2022-09-13T19:01:03.299Z,99496.34
2022-09-13T19:03:32.107Z,99495.22
2022-09-13T19:06:10.095Z,99495.72
2022-09-13T19:08:39.106Z,99492.63
2022-09-13T19:11:06.890Z,99494.28
2022-09-13T19:13:35.368Z,99480.03
2022-09-13T19:16:03.962Z,99490.22
2022-09-13T19:18:31.799Z,99481.66
2022-09-13T19:21:02.979Z,99475.59
2022-09-13T19:23:55.557Z,99469.34
2022-09-13T19:26:22.351Z,99470.19
2022-09-13T19:28:51.607Z,99466.72
2022-09-13T19:31:19.846Z,99465.09
2022-09-13T19:33:47.604Z,99463.41
2022-09-13T19:36:16.120Z,99456.50
2022-09-13T19:38:43.989Z,99459.28
2022-09-13T19:41:12.338Z,99451.41
2022-09-13T19:43:42.331Z,99451.56
2022-09-13T19:46:11.031Z,99450.72
2022-09-13T19:48:39.644Z,99449.25
2022-09-13T19:51:08.263Z,99451.19
2022-09-13T19:53:55.962Z,99444.31
2022-09-13T19:56:24.764Z,99441.69
2022-09-13T19:58:53.843Z,99449.56
2022-09-13T20:01:22.503Z,99440.38
2022-09-13T20:03:53.973Z,99438.84
2022-09-13T20:06:23.422Z,99429.34
2022-09-13T20:08:51.107Z,99427.84
2022-09-13T20:11:18.962Z,99418.31
2022-09-13T20:13:48.106Z,99415.84
2022-09-13T20:16:18.765Z,99415.19
2022-09-13T20:18:46.695Z,99416.81
2022-09-13T20:21:14.860Z,99409.09
2022-09-13T20:23:43.381Z,99405.81
2022-09-13T20:26:14.812Z,99408.44
2022-09-13T20:28:42.842Z,99409.25
2022-09-13T20:31:10.751Z,99404.00
2022-09-13T20:33:40.065Z,99403.03
2022-09-13T20:36:10.541Z,99399.44
2022-09-13T20:38:38.578Z,99400.41
2022-09-13T20:41:06.845Z,99401.38
2022-09-13T20:43:34.813Z,99399.75
2022-09-13T20:46:02.562Z,99399.59
2022-09-13T20:48:30.178Z,99404.84
2022-09-13T20:50:59.858Z,99402.38
2022-09-13T20:53:27.582Z,99405.34
2022-09-13T20:55:55.546Z,99397.50
2022-09-13T20:58:24.935Z,99386.34
2022-09-13T21:00:52.515Z,99382.41
2022-09-13T21:03:20.226Z,99376.34
2022-09-13T21:05:47.838Z,99371.91
2022-09-13T21:08:34.658Z,99373.72
2022-09-13T21:11:03.462Z,99375.16
2022-09-13T21:13:31.149Z,99371.22
2022-09-13T21:16:02.955Z,99369.28
2022-09-13T21:18:30.802Z,99370.06
2022-09-13T21:20:58.894Z,99373.69
2022-09-13T21:23:28.389Z,99380.56
2022-09-13T21:25:56.010Z,99383.38
2022-09-13T21:28:23.697Z,99366.59
2022-09-13T21:30:58.432Z,99373.50
2022-09-13T21:33:26.278Z,99342.97
2022-09-13T21:35:56.954Z,99338.69
2022-09-13T21:38:26.273Z,99349.22
2022-09-13T21:40:59.039Z,99347.38
2022-09-13T21:43:27.506Z,99343.97
2022-09-13T21:46:05.348Z,99330.66
2022-09-13T21:48:33.616Z,99330.81
2022-09-13T21:51:05.900Z,99327.53
2022-09-13T21:53:37.409Z,99319.63
2022-09-13T21:56:08.042Z,99312.75
2022-09-13T21:58:36.143Z,99318.81
2022-09-13T22:01:07.866Z,99314.38
2022-09-13T22:03:36.770Z,99320.47
2022-09-13T22:06:05.192Z,99314.72
2022-09-13T22:08:33.603Z,99319.28
2022-09-13T22:11:05.218Z,99317.50
2022-09-13T22:13:35.159Z,99314.88
2022-09-13T22:16:06.921Z,99312.25
2022-09-13T22:18:34.833Z,99311.25
2022-09-13T22:21:06.174Z,99311.09
2022-09-13T22:23:34.089Z,99299.78
2022-09-13T22:26:02.055Z,99306.66
2022-09-13T22:28:29.796Z,99304.34
2022-09-13T22:31:04.292Z,99304.34
2022-09-13T22:33:31.974Z,99301.06
2022-09-13T22:36:00.404Z,99297.78
2022-09-13T22:38:29.473Z,99294.84
2022-09-13T22:40:57.500Z,99294.00
2022-09-13T22:43:25.633Z,99285.16
2022-09-13T22:45:54.021Z,99283.34
2022-09-13T22:48:23.082Z,99280.06
2022-09-13T22:50:51.787Z,99285.16
2022-09-13T22:53:19.799Z,99281.19
2022-09-13T22:55:47.971Z,99276.13
2022-09-13T22:58:16.079Z,99276.94
2022-09-13T23:00:44.112Z,99275.94
2022-09-13T23:03:11.767Z,99271.38
2022-09-13T23:05:40.920Z,99271.03
2022-09-13T23:08:08.705Z,99264.81
2022-09-13T23:10:36.306Z,99261.34
2022-09-13T23:13:03.914Z,99253.31
2022-09-13T23:15:31.552Z,99252.50
2022-09-13T23:17:59.174Z,99248.06
2022-09-13T23:20:26.911Z,99248.06
2022-09-13T23:22:55.926Z,99249.03
2022-09-13T23:25:23.535Z,99242.00
2022-09-13T23:27:51.139Z,99241.16
2022-09-13T23:30:18.803Z,99242.78
2022-09-13T23:32:47.938Z,99236.75
2022-09-13T23:35:15.621Z,99238.69
2022-09-13T23:37:43.215Z,99231.81
2022-09-13T23:40:12.472Z,99232.63
2022-09-13T23:42:40.108Z,99227.53
2022-09-13T23:45:08.133Z,99232.13
2022-09-13T23:47:35.763Z,99232.78
2022-09-13T23:50:03.361Z,99226.06
2022-09-13T23:52:30.958Z,99232.63
2022-09-13T23:55:00.295Z,99226.88
2022-09-13T23:57:29.273Z,99220.63
2022-09-13T23:59:56.862Z,99219.16
